AFL081 USTR-USMM
Flight info
| Callsign | AFL081 |
|---|---|
| Flight time | N/A |
| Altitude | 37000 |
| Route | LAKED1R LAKED L165 LUGIK T827 RIKBI RIKBI3E |
| Aircraft | A321/M-SDE3FGHIRWY/LB1 |
Departure
| Time | 2026-04-29 16:28 |
|---|---|
| Airport | Roshchino International Airport (USTR) |
Arrival
| Time | N/A |
|---|---|
| Airport | Nadym Airport (USMM) |
| Time | Latitude | Longitude | Altitude | Speed | Heading |
|---|---|---|---|---|---|
| 2026-04-29 16:16 | 57.18745 | 65.33485 | 341 ft | 0 kts | 224° |
| 2026-04-29 16:23 | 57.18735 | 65.33472 | 340 ft | 6 kts | 207° |
| 2026-04-29 16:24 | 57.18675 | 65.33517 | 338 ft | 7 kts | 144° |
| 2026-04-29 16:24 | 57.18673 | 65.33519 | 340 ft | 2 kts | 144° |
| 2026-04-29 16:24 | 57.18624 | 65.33496 | 338 ft | 13 kts | 255° |
| 2026-04-29 16:24 | 57.18612 | 65.33322 | 337 ft | 14 kts | 259° |
| 2026-04-29 16:25 | 57.18545 | 65.33210 | 334 ft | 14 kts | 218° |
| 2026-04-29 16:25 | 57.18479 | 65.33064 | 333 ft | 16 kts | 253° |
| 2026-04-29 16:25 | 57.18473 | 65.32863 | 332 ft | 16 kts | 268° |
| 2026-04-29 16:25 | 57.18471 | 65.32653 | 326 ft | 17 kts | 269° |
| 2026-04-29 16:26 | 57.18468 | 65.32429 | 327 ft | 18 kts | 269° |
| 2026-04-29 16:26 | 57.18470 | 65.32229 | 329 ft | 13 kts | 281° |
| 2026-04-29 16:26 | 57.18516 | 65.32101 | 332 ft | 14 kts | 314° |
| 2026-04-29 16:26 | 57.18605 | 65.31951 | 331 ft | 20 kts | 321° |
| 2026-04-29 16:27 | 57.18695 | 65.31807 | 336 ft | 12 kts | 311° |
| 2026-04-29 16:27 | 57.18682 | 65.31673 | 350 ft | 22 kts | 228° |
| 2026-04-29 16:27 | 57.18411 | 65.31122 | 363 ft | 92 kts | 227° |
| 2026-04-29 16:27 | 57.17848 | 65.29991 | 379 ft | 144 kts | 228° |
| 2026-04-29 16:28 | 57.17126 | 65.28490 | 757 ft | 157 kts | 229° |
| 2026-04-29 16:28 | 57.16409 | 65.26886 | 1219 ft | 171 kts | 241° |
| 2026-04-29 16:28 | 57.16306 | 65.24645 | 1385 ft | 192 kts | 290° |
| 2026-04-29 16:28 | 57.17255 | 65.22786 | 1512 ft | 218 kts | 335° |
| 2026-04-29 16:29 | 57.18848 | 65.22497 | 1714 ft | 246 kts | 7° |
| 2026-04-29 16:29 | 57.20555 | 65.23251 | 2356 ft | 257 kts | 16° |
| 2026-04-29 16:29 | 57.22277 | 65.24342 | 3113 ft | 266 kts | 18° |
| 2026-04-29 16:29 | 57.24042 | 65.25535 | 3814 ft | 274 kts | 18° |
| 2026-04-29 16:30 | 57.25854 | 65.26745 | 4619 ft | 279 kts | 17° |
| 2026-04-29 16:30 | 57.27677 | 65.27911 | 5407 ft | 283 kts | 16° |
| 2026-04-29 16:30 | 57.29567 | 65.29079 | 6239 ft | 287 kts | 15° |
| 2026-04-29 16:30 | 57.31484 | 65.30218 | 7033 ft | 291 kts | 15° |
| 2026-04-29 16:31 | 57.33432 | 65.31360 | 7801 ft | 295 kts | 15° |
| 2026-04-29 16:31 | 57.34099 | 65.31747 | 8050 ft | 297 kts | 15° |